createdAt,value
2018-12-16T00:01:44.084Z,12.00
2018-12-16T00:04:11.223Z,11.13
2018-12-16T00:06:38.408Z,10.80
2018-12-16T00:09:05.936Z,12.00
2018-12-16T00:11:33.092Z,11.00
2018-12-16T00:14:00.252Z,12.00
2018-12-16T00:16:27.402Z,11.47
2018-12-16T00:18:54.649Z,13.17
2018-12-16T00:21:21.801Z,12.00
2018-12-16T00:23:49.032Z,12.40
2018-12-16T00:26:17.283Z,12.10
2018-12-16T00:28:44.434Z,11.97
2018-12-16T00:31:11.704Z,11.67
2018-12-16T00:33:38.851Z,12.10
2018-12-16T00:36:05.979Z,13.00
2018-12-16T00:38:33.132Z,12.40
2018-12-16T00:41:00.346Z,11.73
2018-12-16T00:43:27.663Z,12.67
2018-12-16T00:45:54.818Z,12.97
2018-12-16T00:48:21.972Z,11.57
2018-12-16T00:50:49.132Z,11.57
2018-12-16T00:53:16.378Z,12.60
2018-12-16T00:55:43.713Z,13.40
2018-12-16T00:58:10.828Z,12.40
2018-12-16T01:00:37.988Z,13.00
2018-12-16T01:03:05.244Z,12.37
2018-12-16T01:05:32.408Z,11.10
2018-12-16T01:07:59.560Z,12.93
2018-12-16T01:10:26.703Z,13.60
2018-12-16T01:12:53.876Z,12.10
2018-12-16T01:15:21.037Z,13.03
2018-12-16T01:17:48.187Z,13.03
2018-12-16T01:20:15.362Z,11.80
2018-12-16T01:22:43.610Z,12.63
2018-12-16T01:25:11.144Z,12.50
2018-12-16T01:27:38.280Z,12.23
2018-12-16T01:30:05.563Z,12.03
2018-12-16T01:32:32.704Z,11.67
2018-12-16T01:34:59.844Z,11.97
2018-12-16T01:37:27.017Z,12.67
2018-12-16T01:39:54.177Z,11.70
2018-12-16T01:42:21.353Z,12.90
2018-12-16T01:44:48.556Z,12.87
2018-12-16T01:47:15.728Z,12.17
2018-12-16T01:49:42.893Z,12.70
2018-12-16T01:52:10.067Z,12.33
2018-12-16T01:54:37.212Z,13.00
2018-12-16T01:57:04.384Z,12.70
2018-12-16T01:59:31.556Z,12.90
2018-12-16T02:01:58.721Z,12.30
2018-12-16T02:04:25.860Z,13.03
2018-12-16T02:06:53.023Z,13.13
2018-12-16T02:09:20.363Z,13.13
2018-12-16T02:11:47.504Z,11.90
2018-12-16T02:14:14.663Z,12.93
2018-12-16T02:16:41.824Z,11.37
2018-12-16T02:19:08.968Z,12.30
2018-12-16T02:21:36.131Z,12.50
2018-12-16T02:24:03.275Z,13.00
2018-12-16T02:26:30.436Z,12.40
2018-12-16T02:28:57.664Z,12.70
2018-12-16T02:31:25.433Z,13.40
2018-12-16T02:33:52.669Z,13.20
2018-12-16T02:36:19.836Z,13.30
2018-12-16T02:38:46.977Z,12.57
2018-12-16T02:41:14.128Z,13.67
2018-12-16T02:43:41.383Z,12.80
2018-12-16T02:46:08.532Z,13.80
2018-12-16T02:48:35.688Z,13.47
2018-12-16T02:51:02.944Z,12.03
2018-12-16T02:53:30.188Z,13.27
2018-12-16T02:55:57.361Z,13.40
2018-12-16T02:58:24.595Z,13.13
2018-12-16T03:00:51.849Z,11.67
2018-12-16T03:03:19.083Z,11.60
2018-12-16T03:05:46.279Z,12.93
2018-12-16T03:08:13.495Z,13.00
2018-12-16T03:10:40.756Z,13.50
2018-12-16T03:13:07.928Z,11.53
2018-12-16T03:15:35.076Z,11.30
2018-12-16T03:18:02.303Z,13.50
2018-12-16T03:20:29.433Z,12.90
2018-12-16T03:22:56.601Z,13.40
2018-12-16T03:25:23.751Z,13.13
2018-12-16T03:27:50.917Z,12.90
2018-12-16T03:30:18.062Z,12.63
2018-12-16T03:32:45.328Z,12.73
2018-12-16T03:35:12.675Z,12.97
2018-12-16T03:37:39.932Z,13.93
2018-12-16T03:40:07.094Z,14.90
2018-12-16T03:42:34.483Z,14.30
2018-12-16T03:45:01.802Z,13.40
2018-12-16T03:47:28.960Z,15.37
2018-12-16T03:49:56.116Z,13.40
2018-12-16T03:52:23.426Z,13.70
2018-12-16T03:54:50.565Z,13.40
2018-12-16T03:57:17.727Z,13.87
2018-12-16T03:59:44.906Z,13.57
2018-12-16T04:02:12.049Z,13.27
2018-12-16T04:04:39.218Z,14.30
2018-12-16T04:07:06.429Z,13.67
2018-12-16T04:09:33.757Z,14.17
2018-12-16T04:12:00.945Z,14.47
2018-12-16T04:14:28.103Z,13.73
2018-12-16T04:16:55.256Z,14.10
2018-12-16T04:19:22.406Z,12.80
2018-12-16T04:21:49.567Z,13.33
2018-12-16T04:24:16.720Z,13.67
2018-12-16T04:26:43.895Z,13.67
2018-12-16T04:29:11.048Z,14.13
2018-12-16T04:31:38.207Z,14.70
2018-12-16T04:34:05.488Z,14.37
2018-12-16T04:36:32.644Z,14.00
2018-12-16T04:38:59.809Z,12.70
2018-12-16T04:41:27.042Z,12.70
2018-12-16T04:43:54.176Z,13.30
2018-12-16T04:46:21.451Z,14.13
2018-12-16T04:48:48.672Z,14.80
2018-12-16T04:51:15.834Z,14.20
2018-12-16T04:53:42.992Z,15.17
2018-12-16T04:56:10.156Z,14.10
2018-12-16T04:58:37.316Z,14.00
2018-12-16T05:01:04.584Z,14.17
2018-12-16T05:03:31.751Z,13.77
2018-12-16T05:05:58.916Z,14.97
2018-12-16T05:08:26.060Z,14.97
2018-12-16T05:10:53.260Z,13.57
2018-12-16T05:14:23.931Z,14.20
2018-12-16T05:16:51.100Z,13.93
2018-12-16T05:19:18.244Z,13.43
2018-12-16T05:21:45.417Z,13.77
2018-12-16T05:24:12.560Z,13.23
2018-12-16T05:26:39.728Z,13.97
2018-12-16T05:29:06.888Z,13.07
2018-12-16T05:31:34.052Z,14.17
2018-12-16T05:34:01.208Z,13.70
2018-12-16T05:36:28.361Z,14.23
2018-12-16T05:38:55.519Z,13.03
2018-12-16T05:41:22.660Z,13.90
2018-12-16T05:43:49.816Z,14.13
2018-12-16T05:46:16.973Z,14.40
2018-12-16T05:48:44.199Z,13.27
2018-12-16T05:51:11.417Z,13.70
2018-12-16T05:53:38.568Z,14.33
2018-12-16T05:56:05.733Z,13.53
2018-12-16T05:58:32.915Z,13.93
2018-12-16T06:01:00.091Z,13.00
2018-12-16T06:03:27.362Z,14.50
2018-12-16T06:05:55.368Z,12.60
2018-12-16T06:08:22.519Z,13.83
2018-12-16T06:10:49.671Z,13.50
2018-12-16T06:13:16.816Z,13.97
2018-12-16T06:15:44.027Z,13.50
2018-12-16T06:18:11.169Z,13.30
2018-12-16T06:20:38.336Z,13.73
2018-12-16T06:23:05.488Z,13.63
2018-12-16T06:25:32.649Z,13.53
2018-12-16T06:28:00.028Z,14.50
2018-12-16T06:30:29.872Z,13.60
2018-12-16T06:32:57.025Z,13.13
2018-12-16T06:35:24.190Z,13.23
2018-12-16T06:37:51.436Z,13.67
2018-12-16T06:40:18.616Z,14.07
2018-12-16T06:42:45.792Z,14.67
2018-12-16T06:45:13.057Z,13.10
2018-12-16T06:47:40.200Z,13.53
2018-12-16T06:50:07.464Z,14.07
2018-12-16T06:52:34.631Z,15.00
2018-12-16T06:55:01.776Z,14.43
2018-12-16T06:57:29.037Z,15.20
2018-12-16T06:59:56.248Z,15.73
2018-12-16T07:02:23.404Z,14.37
2018-12-16T07:04:50.569Z,13.97
2018-12-16T07:07:17.724Z,13.37
2018-12-16T07:09:44.874Z,13.77
2018-12-16T07:12:12.076Z,14.00
2018-12-16T07:14:39.292Z,13.77
2018-12-16T07:17:06.450Z,14.13
2018-12-16T07:19:33.604Z,14.70
2018-12-16T07:22:00.828Z,13.43
2018-12-16T07:24:28.072Z,13.23
2018-12-16T07:26:55.238Z,15.43
2018-12-16T07:29:22.562Z,13.60
2018-12-16T07:31:49.700Z,14.57
2018-12-16T07:34:16.967Z,13.60
2018-12-16T07:36:44.112Z,14.30
2018-12-16T07:39:11.264Z,13.90
2018-12-16T07:41:38.431Z,14.03
2018-12-16T07:44:05.585Z,14.83
2018-12-16T07:46:32.792Z,14.73
2018-12-16T07:48:59.950Z,13.23
2018-12-16T07:51:27.141Z,14.00
2018-12-16T07:53:54.382Z,13.10
2018-12-16T07:56:21.619Z,13.00
2018-12-16T07:58:48.804Z,15.27
2018-12-16T08:01:15.993Z,15.07
2018-12-16T08:03:43.246Z,13.83
2018-12-16T08:06:10.540Z,14.40
2018-12-16T08:08:37.683Z,14.53
2018-12-16T08:11:04.932Z,14.03
2018-12-16T08:13:32.097Z,14.43
2018-12-16T08:15:59.338Z,13.43
2018-12-16T08:18:26.487Z,14.30
2018-12-16T08:20:53.628Z,13.90
2018-12-16T08:23:20.888Z,13.80
2018-12-16T08:25:48.033Z,14.67
2018-12-16T08:28:15.196Z,14.33
2018-12-16T08:30:42.460Z,15.17
2018-12-16T08:33:09.619Z,14.80
2018-12-16T08:35:36.841Z,14.83
2018-12-16T08:38:04.201Z,14.47
2018-12-16T08:40:31.445Z,14.40
2018-12-16T08:42:58.980Z,15.40
2018-12-16T08:45:26.123Z,15.90
2018-12-16T08:47:53.302Z,15.00
2018-12-16T08:50:20.536Z,15.30
2018-12-16T08:52:47.727Z,15.00
2018-12-16T08:55:14.897Z,15.70
2018-12-16T08:57:42.056Z,14.93
2018-12-16T09:00:09.329Z,14.73
2018-12-16T09:02:36.475Z,14.40
2018-12-16T09:05:04.009Z,16.10
2018-12-16T09:07:37.232Z,16.80
2018-12-16T09:10:00.344Z,15.87
2018-12-16T09:12:27.512Z,15.73
2018-12-16T09:14:54.682Z,16.37
2018-12-16T09:17:21.836Z,15.43
2018-12-16T09:19:49.104Z,17.10
2018-12-16T09:22:16.287Z,16.97
2018-12-16T09:24:43.453Z,17.00
2018-12-16T09:27:10.611Z,16.47
2018-12-16T09:29:37.852Z,15.83
2018-12-16T09:32:05.181Z,15.30
2018-12-16T09:34:32.313Z,16.00
2018-12-16T09:36:59.473Z,16.77
2018-12-16T09:39:26.742Z,15.57
2018-12-16T09:41:53.883Z,17.03
2018-12-16T09:44:21.051Z,16.80
2018-12-16T09:46:48.222Z,16.00
2018-12-16T09:49:15.642Z,16.67
2018-12-16T09:51:42.815Z,16.10
2018-12-16T09:54:09.969Z,15.37
2018-12-16T09:56:37.152Z,15.57
2018-12-16T09:59:04.415Z,16.60
2018-12-16T10:01:31.612Z,15.40
2018-12-16T10:03:58.769Z,15.80
2018-12-16T10:06:25.929Z,15.03
2018-12-16T10:08:53.157Z,17.80
2018-12-16T10:11:20.308Z,21.80
2018-12-16T10:13:47.460Z,18.67
2018-12-16T10:16:14.703Z,17.13
2018-12-16T10:18:41.870Z,16.80
2018-12-16T10:21:09.091Z,15.30
2018-12-16T10:23:36.248Z,16.27
2018-12-16T10:26:03.510Z,15.60
2018-12-16T10:28:30.664Z,16.97
2018-12-16T10:30:57.821Z,14.97
2018-12-16T10:33:24.988Z,16.10
2018-12-16T10:35:52.161Z,15.83
2018-12-16T10:38:19.312Z,19.23
2018-12-16T10:40:46.471Z,16.10
2018-12-16T10:43:13.919Z,15.30
2018-12-16T10:45:41.116Z,14.20
2018-12-16T10:48:08.268Z,17.07
2018-12-16T10:50:35.533Z,16.43
2018-12-16T10:53:02.679Z,15.57
2018-12-16T10:55:29.840Z,15.97
2018-12-16T10:57:56.988Z,17.57
2018-12-16T11:00:29.552Z,15.03
2018-12-16T11:02:56.916Z,14.70
2018-12-16T11:05:24.780Z,15.90
2018-12-16T11:07:51.931Z,15.37
2018-12-16T11:10:19.091Z,16.20
2018-12-16T11:12:46.554Z,14.67
2018-12-16T11:15:13.712Z,15.07
2018-12-16T11:17:40.869Z,18.33
2018-12-16T11:20:08.123Z,15.87
2018-12-16T11:22:35.329Z,15.00
2018-12-16T11:25:05.765Z,15.23
2018-12-16T11:27:31.632Z,16.40
2018-12-16T11:29:58.787Z,16.30
2018-12-16T11:32:25.943Z,16.10
2018-12-16T11:34:53.149Z,15.03
2018-12-16T11:37:20.316Z,15.97
2018-12-16T11:39:47.487Z,14.83
2018-12-16T11:42:14.630Z,16.23
2018-12-16T11:44:41.834Z,16.80
2018-12-16T11:47:09.093Z,15.63
2018-12-16T11:49:36.247Z,15.40
2018-12-16T11:52:03.520Z,15.03
2018-12-16T11:54:30.691Z,15.73
2018-12-16T11:56:57.846Z,15.53
2018-12-16T11:59:24.993Z,15.80
2018-12-16T12:01:52.156Z,17.80
2018-12-16T12:04:19.321Z,18.23
2018-12-16T12:06:46.514Z,15.50
2018-12-16T12:09:13.668Z,15.23
2018-12-16T12:11:40.912Z,16.80
2018-12-16T12:14:08.155Z,16.00
2018-12-16T12:16:35.340Z,17.00
2018-12-16T12:19:03.171Z,16.17
2018-12-16T12:21:30.347Z,17.07
2018-12-16T12:23:57.559Z,16.80
2018-12-16T12:26:24.705Z,16.93
2018-12-16T12:28:51.875Z,16.77
2018-12-16T12:31:19.156Z,16.80
2018-12-16T12:33:46.332Z,17.70
2018-12-16T12:36:13.484Z,24.10
2018-12-16T12:38:40.643Z,21.90
2018-12-16T12:41:07.811Z,19.63
2018-12-16T12:43:34.956Z,18.33
2018-12-16T12:46:02.124Z,17.87
2018-12-16T12:48:30.419Z,19.70
2018-12-16T12:50:57.716Z,16.70
2018-12-16T12:53:24.897Z,18.83
2018-12-16T12:55:52.023Z,18.67
2018-12-16T12:58:19.197Z,16.27
2018-12-16T13:00:46.344Z,16.53
2018-12-16T13:03:13.496Z,16.47
2018-12-16T13:05:40.660Z,21.07
2018-12-16T13:08:07.819Z,21.13
2018-12-16T13:10:34.984Z,16.30
2018-12-16T13:13:02.127Z,18.23
2018-12-16T13:15:29.296Z,16.20
2018-12-16T13:17:56.445Z,17.60
2018-12-16T13:20:23.613Z,16.30
2018-12-16T13:22:50.902Z,17.00
2018-12-16T13:25:23.640Z,15.70
2018-12-16T13:27:50.796Z,18.03
2018-12-16T13:30:17.955Z,17.57
2018-12-16T13:32:45.137Z,17.13
2018-12-16T13:35:12.293Z,16.00
2018-12-16T13:37:39.533Z,16.10
2018-12-16T13:40:07.321Z,16.60
2018-12-16T13:42:34.468Z,28.97
2018-12-16T13:45:01.652Z,18.30
2018-12-16T13:47:28.828Z,17.40
2018-12-16T13:49:55.967Z,19.13
2018-12-16T13:52:23.132Z,20.10
2018-12-16T13:54:50.294Z,19.70
2018-12-16T13:57:17.469Z,18.63
2018-12-16T13:59:44.603Z,18.90
2018-12-16T14:02:11.762Z,18.57
2018-12-16T14:04:38.904Z,18.00
2018-12-16T14:07:06.063Z,17.73
2018-12-16T14:09:33.302Z,17.70
2018-12-16T14:12:00.593Z,19.80
2018-12-16T14:14:27.760Z,34.17
2018-12-16T14:16:55.168Z,19.47
2018-12-16T14:19:22.372Z,18.43
2018-12-16T14:21:49.528Z,18.30
2018-12-16T14:24:16.688Z,18.47
2018-12-16T14:26:43.844Z,17.47
2018-12-16T14:29:11.020Z,19.80
2018-12-16T14:31:38.268Z,17.40
2018-12-16T14:34:05.427Z,19.93
2018-12-16T14:36:32.605Z,21.80
2018-12-16T14:38:59.800Z,18.47
2018-12-16T14:41:26.948Z,18.40
2018-12-16T14:43:54.217Z,17.10
2018-12-16T14:46:21.476Z,18.23
2018-12-16T14:48:48.636Z,19.80
2018-12-16T14:51:15.878Z,19.10
2018-12-16T14:53:43.028Z,17.30
2018-12-16T14:56:10.176Z,16.17
2018-12-16T14:58:37.584Z,16.60
2018-12-16T15:01:04.784Z,18.83
2018-12-16T15:03:31.952Z,19.20
2018-12-16T15:05:59.104Z,18.30
2018-12-16T15:08:26.376Z,18.20
2018-12-16T15:10:53.532Z,18.23
2018-12-16T15:13:20.683Z,18.00
2018-12-16T15:15:47.827Z,24.57
2018-12-16T15:18:15.091Z,21.60
2018-12-16T15:20:42.264Z,17.83
2018-12-16T15:23:09.416Z,17.17
2018-12-16T15:25:36.587Z,18.73
2018-12-16T15:28:03.749Z,17.70
2018-12-16T15:30:31.003Z,17.63
2018-12-16T15:32:58.231Z,16.87
2018-12-16T15:35:25.604Z,16.10
2018-12-16T15:37:52.767Z,16.23
2018-12-16T15:40:20.119Z,17.60
2018-12-16T15:42:47.348Z,15.73
2018-12-16T15:45:14.512Z,15.83
2018-12-16T15:47:41.664Z,16.80
2018-12-16T15:50:15.444Z,16.33
2018-12-16T15:52:42.592Z,18.20
2018-12-16T15:55:10.420Z,16.10
2018-12-16T15:57:37.559Z,16.30
2018-12-16T16:00:04.873Z,17.83
2018-12-16T16:02:32.005Z,16.90
2018-12-16T16:04:59.195Z,18.10
2018-12-16T16:07:26.435Z,16.27
2018-12-16T16:09:53.601Z,16.80
2018-12-16T16:12:20.755Z,17.07
2018-12-16T16:14:47.903Z,17.07
2018-12-16T16:17:15.071Z,17.10
2018-12-16T16:19:42.233Z,15.53
2018-12-16T16:22:09.448Z,17.03
2018-12-16T16:24:36.613Z,18.00
2018-12-16T16:27:03.965Z,19.23
2018-12-16T16:29:31.115Z,22.30
2018-12-16T16:31:58.289Z,21.03
2018-12-16T16:34:25.479Z,17.50
2018-12-16T16:36:52.638Z,17.47
2018-12-16T16:39:19.896Z,16.73
2018-12-16T16:41:47.071Z,16.83
2018-12-16T16:44:14.422Z,17.80
2018-12-16T16:46:41.776Z,19.67
2018-12-16T16:49:09.023Z,20.17
2018-12-16T16:51:36.199Z,15.63
2018-12-16T16:54:03.428Z,16.47
2018-12-16T16:56:30.604Z,16.40
2018-12-16T16:58:57.751Z,16.70
2018-12-16T17:01:25.064Z,17.60
2018-12-16T17:03:52.218Z,16.03
2018-12-16T17:06:19.473Z,17.80
2018-12-16T17:08:46.621Z,15.90
2018-12-16T17:11:13.999Z,14.83
2018-12-16T17:13:41.236Z,15.60
2018-12-16T17:16:08.577Z,15.80
2018-12-16T17:18:35.839Z,15.70
2018-12-16T17:21:03.120Z,15.60
2018-12-16T17:23:30.284Z,15.33
2018-12-16T17:25:57.456Z,15.60
2018-12-16T17:28:24.612Z,15.40
2018-12-16T17:30:51.767Z,14.73
2018-12-16T17:33:19.052Z,16.13
2018-12-16T17:35:46.215Z,15.90
2018-12-16T17:38:13.364Z,13.90
2018-12-16T17:40:40.519Z,17.77
2018-12-16T17:43:07.744Z,15.23
2018-12-16T17:45:34.933Z,14.70
2018-12-16T17:48:02.149Z,14.60
2018-12-16T17:50:29.413Z,14.70
2018-12-16T17:52:56.565Z,14.30
2018-12-16T17:55:23.808Z,13.23
2018-12-16T17:57:50.960Z,13.30
2018-12-16T18:00:18.620Z,14.07
2018-12-16T18:02:45.855Z,15.00
2018-12-16T18:05:13.232Z,14.33
2018-12-16T18:07:40.393Z,15.37
2018-12-16T18:10:07.620Z,13.27
2018-12-16T18:12:34.768Z,14.00
2018-12-16T18:15:02.055Z,14.37
2018-12-16T18:17:29.347Z,14.23
2018-12-16T18:19:56.522Z,13.40
2018-12-16T18:22:23.679Z,15.27
2018-12-16T18:24:50.832Z,14.80
2018-12-16T18:27:18.080Z,14.00
2018-12-16T18:29:45.331Z,14.00
2018-12-16T18:32:12.504Z,16.47
2018-12-16T18:34:39.661Z,16.10
2018-12-16T18:37:06.828Z,16.53
2018-12-16T18:39:33.988Z,13.90
2018-12-16T18:42:01.351Z,14.57
2018-12-16T18:44:28.512Z,16.10
2018-12-16T18:46:55.670Z,15.57
2018-12-16T18:49:22.908Z,16.93
2018-12-16T18:51:50.076Z,19.60
2018-12-16T18:54:17.349Z,15.30
2018-12-16T18:56:50.884Z,15.17
2018-12-16T18:59:13.689Z,15.70
2018-12-16T19:01:40.847Z,17.20
2018-12-16T19:04:08.007Z,17.70
2018-12-16T19:06:35.164Z,21.40
2018-12-16T19:09:02.427Z,18.60
2018-12-16T19:11:29.599Z,31.87
2018-12-16T19:13:56.749Z,16.27
2018-12-16T19:16:23.927Z,14.23
2018-12-16T19:18:51.273Z,15.00
2018-12-16T19:21:18.552Z,15.87
2018-12-16T19:23:45.703Z,13.90
2018-12-16T19:26:12.852Z,13.97
2018-12-16T19:28:40.092Z,15.13
2018-12-16T19:31:07.341Z,20.80
2018-12-16T19:33:34.486Z,20.40
2018-12-16T19:36:01.657Z,16.40
2018-12-16T19:38:28.809Z,15.10
2018-12-16T19:40:55.962Z,15.20
2018-12-16T19:43:23.209Z,13.57
2018-12-16T19:45:50.327Z,13.63
2018-12-16T19:48:17.479Z,14.13
2018-12-16T19:50:44.681Z,14.50
2018-12-16T19:53:11.845Z,13.80
2018-12-16T19:55:38.987Z,14.30
2018-12-16T19:58:06.216Z,12.70
2018-12-16T20:00:33.360Z,13.50
2018-12-16T20:03:00.537Z,14.00
2018-12-16T20:05:27.703Z,13.67
2018-12-16T20:07:54.871Z,14.30
2018-12-16T20:10:22.080Z,13.40
2018-12-16T20:12:49.329Z,13.90
2018-12-16T20:15:16.489Z,14.70
2018-12-16T20:17:43.645Z,14.73
2018-12-16T20:20:10.897Z,13.47
2018-12-16T20:22:38.083Z,13.77
2018-12-16T20:25:05.643Z,12.87
2018-12-16T20:27:32.796Z,13.40
2018-12-16T20:29:59.963Z,12.60
2018-12-16T20:32:27.232Z,13.97
2018-12-16T20:34:54.543Z,17.00
2018-12-16T20:37:21.700Z,15.20
2018-12-16T20:39:48.840Z,15.00
2018-12-16T20:42:16.000Z,13.40
2018-12-16T20:44:43.193Z,15.33
2018-12-16T20:47:10.349Z,13.70
2018-12-16T20:49:37.517Z,12.00
2018-12-16T20:52:04.739Z,12.50
2018-12-16T20:54:31.939Z,12.80
2018-12-16T20:56:59.096Z,12.60
2018-12-16T20:59:26.268Z,13.07
2018-12-16T21:01:53.415Z,12.37
2018-12-16T21:04:20.580Z,13.10
2018-12-16T21:06:47.728Z,12.67
2018-12-16T21:09:15.094Z,12.50
2018-12-16T21:11:47.670Z,11.80
2018-12-16T21:14:20.125Z,11.77
2018-12-16T21:16:52.872Z,13.00
2018-12-16T21:19:20.533Z,11.53
2018-12-16T21:21:47.760Z,13.00
2018-12-16T21:24:14.904Z,12.07
2018-12-16T21:26:42.397Z,12.30
2018-12-16T21:29:09.547Z,11.83
2018-12-16T21:31:36.705Z,11.30
2018-12-16T21:34:03.872Z,12.47
2018-12-16T21:36:31.027Z,12.20
2018-12-16T21:38:58.213Z,11.40
2018-12-16T21:41:25.456Z,12.40
2018-12-16T21:43:52.601Z,12.30
2018-12-16T21:46:19.765Z,11.67
2018-12-16T21:48:46.929Z,11.87
2018-12-16T21:51:14.091Z,11.00
2018-12-16T21:53:41.272Z,12.50
2018-12-16T21:56:08.469Z,11.43
2018-12-16T21:58:35.623Z,11.30
2018-12-16T22:01:02.771Z,11.47
2018-12-16T22:03:29.929Z,11.10
2018-12-16T22:05:57.160Z,11.10
2018-12-16T22:08:24.320Z,10.50
2018-12-16T22:10:51.555Z,11.00
2018-12-16T22:13:18.729Z,11.90
2018-12-16T22:15:45.888Z,11.57
2018-12-16T22:18:13.060Z,11.20
2018-12-16T22:20:40.236Z,11.63
2018-12-16T22:23:07.427Z,10.40
2018-12-16T22:25:34.580Z,10.70
2018-12-16T22:28:01.745Z,11.07
2018-12-16T22:30:28.903Z,11.83
2018-12-16T22:32:56.055Z,11.40
2018-12-16T22:35:23.310Z,11.43
2018-12-16T22:37:50.619Z,11.27
2018-12-16T22:40:17.829Z,10.87
2018-12-16T22:42:44.977Z,11.13
2018-12-16T22:45:12.184Z,11.00
2018-12-16T22:47:39.381Z,10.60
2018-12-16T22:50:06.677Z,11.00
2018-12-16T22:52:33.819Z,10.47
2018-12-16T22:55:01.001Z,12.13
2018-12-16T22:57:28.148Z,10.97
2018-12-16T22:59:55.487Z,10.57
2018-12-16T23:02:22.741Z,10.57
2018-12-16T23:04:49.924Z,11.23
2018-12-16T23:07:17.068Z,9.87
2018-12-16T23:09:44.215Z,9.97
2018-12-16T23:12:11.379Z,9.97
2018-12-16T23:14:38.548Z,10.13
2018-12-16T23:17:05.707Z,9.83
2018-12-16T23:19:32.856Z,9.43
2018-12-16T23:22:00.053Z,10.13
2018-12-16T23:24:27.416Z,9.83
2018-12-16T23:26:54.579Z,10.00
2018-12-16T23:29:21.817Z,10.17
2018-12-16T23:31:48.978Z,10.00
2018-12-16T23:34:16.127Z,9.50
2018-12-16T23:36:43.284Z,8.70
2018-12-16T23:39:10.495Z,9.07
2018-12-16T23:41:37.637Z,9.13
2018-12-16T23:44:04.783Z,9.40
2018-12-16T23:46:31.932Z,8.43
2018-12-16T23:48:59.083Z,9.00
2018-12-16T23:51:26.240Z,8.77
2018-12-16T23:53:53.500Z,9.70
2018-12-16T23:56:20.656Z,10.00
2018-12-16T23:58:47.899Z,8.80
